Погода Сэбэоанина неделю

Северо-Восточный, Румыния

22 - 28 мая
  • 22мая
    Сегодня
    +12°
    +26°
    Ясно и безоблачно
    ВремяПогодаТемператураВлажностьДавлениеВетер, м/сВероятность осадков
    00:00Ясно и безоблачно+18°C45 %742 мм4.5 м/с2 %
    03:00Ясно и безоблачно+15°C55 %741 мм3.8 м/с2 %
    06:00Ясно и безоблачно+12°C67 %741 мм2.7 м/с2 %
    09:00Ясно и безоблачно+17°C52 %741 мм4.1 м/с2 %
    12:00Ясно и безоблачно+22°C31 %741 мм6.2 м/с2 %
    15:00Ясно и безоблачно+25°C26 %740 мм6.9 м/с2 %
    18:00Практически безоблачно+25°C30 %739 мм5.9 м/с2 %
    21:00Практически безоблачно+21°C50 %740 мм3.2 м/с2 %
  • 23мая
    Четверг
    +13°
    +27°
    Ясно и безоблачно
    ВремяПогодаТемператураВлажностьДавлениеВетер, м/сВероятность осадков
    00:00Облачно с прояснениями+18°C64 %740 мм2.3 м/с5 %
    03:00Практически безоблачно+15°C69 %740 мм2.5 м/с8 %
    06:00Практически безоблачно+13°C82 %741 мм1.5 м/с3 %
    09:00Ясно и безоблачно+18°C55 %742 мм2.1 м/с2 %
    12:00Ясно и безоблачно+24°C30 %742 мм4.0 м/с2 %
    15:00Ясно и безоблачно+26°C23 %741 мм4.7 м/с2 %
    18:00Ясно и безоблачно+27°C22 %741 мм4.4 м/с2 %
    21:00Практически безоблачно+22°C43 %742 мм3.1 м/с2 %
  • 24мая
    Пятница
    +13°
    +28°
    Практически безоблачно
    ВремяПогодаТемператураВлажностьДавлениеВетер, м/сВероятность осадков
    00:00Ясно и безоблачно+18°C57 %742 мм1.9 м/с2 %
    03:00Ясно и безоблачно+16°C65 %743 мм1.9 м/с2 %
    06:00Ясно и безоблачно+13°C73 %743 мм2.1 м/с2 %
    09:00Небольшая облачность+19°C45 %745 мм2.5 м/с2 %
    12:00Облачно с прояснениями+25°C24 %745 мм4.4 м/с2 %
    15:00Практически безоблачно+28°C20 %745 мм5.2 м/с3 %
    18:00Ясно и безоблачно+27°C22 %744 мм5.7 м/с4 %
    21:00Облачно с прояснениями+23°C29 %745 мм3.3 м/с2 %
  • 25мая
    Суббота
    +11°
    +25°
    Облачно с прояснениями
    ВремяПогодаТемператураВлажностьДавлениеВетер, м/сВероятность осадков
    00:00Ясно и безоблачно+20°C34 %745 мм3.2 м/с3 %
    03:00Ясно и безоблачно+16°C54 %746 мм2.4 м/с2 %
    06:00Ясно и безоблачно+14°C54 %746 мм2.0 м/с2 %
    09:00Ясно и безоблачно+18°C39 %747 мм1.6 м/с2 %
    12:00Ясно и безоблачно+23°C33 %747 мм2.9 м/с18 %
    15:00Облачно с прояснениями+24°C42 %746 мм4.6 м/с49 %
    18:00Облачно с прояснениями+24°C40 %746 мм3.5 м/с37 %
    21:00Практически безоблачно+21°C58 %745 мм2.6 м/с3 %
  • 26мая
    Воскресенье
    +10°
    +27°
    Ясно и безоблачно
    ВремяПогодаТемператураВлажностьДавлениеВетер, м/сВероятность осадков
    00:00Ясно и безоблачно+19°C69 %746 мм1.8 м/с2 %
    03:00Ясно и безоблачно+15°C80 %746 мм2.0 м/с2 %
    06:00Практически безоблачно+12°C92 %745 мм1.6 м/с2 %
    09:00Ясно и безоблачно+18°C51 %746 мм2.0 м/с2 %
    12:00Практически безоблачно+23°C29 %746 мм3.8 м/с2 %
    15:00Ясно и безоблачно+26°C25 %745 мм4.3 м/с2 %
    18:00Ясно и безоблачно+26°C23 %745 мм4.6 м/с2 %
    21:00Ясно и безоблачно+20°C35 %745 мм3.2 м/с2 %
Мы используем cookies
Соглашаюсь